Time;durP1;ratioP1;P1;durP2;ratioP2;P2;SDS_P1;SDS_P2;PMS_P1;PMS_P2;Temp;Humidity;BMP_temperature;BMP_pressure;BME280_temperature;BME280_humidity;BME280_pressure;Samples;Min_cycle;Max_cycle;Signal;HPM_P1;HPM_P2
2022/01/25 00:27:42;;;;;;;16.33;6.22;;;4.10;99.90;;;;;;5108616;27;20044;-80
2022/01/25 00:33:19;;;;;;;15.10;6.22;;;4.40;99.90;;;;;;5097805;27;22068;-78
2022/01/25 00:35:47;;;;;;;9.90;4.32;;;5.90;99.90;;;;;;5091604;27;20051;-79
2022/01/25 00:38:18;;;;;;;15.60;5.53;;;5.20;99.90;;;;;;5089642;27;20044;-79
2022/01/25 00:40:44;;;;;;;16.23;6.70;;;4.10;99.90;;;;;;5090504;27;20094;-79
2022/01/25 00:43:28;;;;;;;18.92;7.47;;;4.40;99.90;;;;;;5086231;27;20035;-80
2022/01/25 00:46:10;;;;;;;16.92;5.88;;;2.80;99.90;;;;;;5094140;27;20042;-80
2022/01/25 00:48:45;;;;;;;15.57;5.75;;;5.40;99.90;;;;;;5110258;27;20036;-80
2022/01/25 00:54:11;;;;;;;14.73;6.57;;;4.00;99.90;;;;;;5109716;27;20241;-79
2022/01/25 00:56:44;;;;;;;21.95;7.28;;;4.80;99.90;;;;;;5110729;27;20679;-80
2022/01/25 00:59:15;;;;;;;19.55;6.97;;;4.00;99.90;;;;;;5087686;27;20476;-80
2022/01/25 01:01:42;;;;;;;16.38;5.95;;;4.30;99.90;;;;;;5091894;27;20055;-80
2022/01/25 01:04:18;;;;;;;17.52;5.65;;;4.00;99.90;;;;;;5092024;27;20036;-80
2022/01/25 01:06:53;;;;;;;14.43;5.97;;;4.00;99.90;;;;;;5088585;27;20745;-79
2022/01/25 01:10:09;;;;;;;18.08;6.28;;;4.90;99.90;;;;;;5110670;27;20043;-81
2022/01/25 01:43:26;;;;;;;;;;;;;;;;;;;;;
2022/01/25 01:47:04;;;;;;;14.95;6.25;;;2.50;99.90;;;;;;5094238;27;20628;-80
2022/01/25 01:50:13;;;;;;;12.60;5.38;;;4.20;99.90;;;;;;5102720;27;20087;-80
2022/01/25 01:57:25;;;;;;;11.02;4.65;;;3.70;99.90;;;;;;5097974;27;20300;-80
2022/01/25 02:00:59;;;;;;;9.15;4.28;;;4.00;99.90;;;;;;5015365;28;20855;-80
2022/01/25 02:03:50;;;;;;;19.42;6.40;;;4.50;99.90;;;;;;5086890;27;20083;-80
2022/01/25 02:07:14;;;;;;;15.30;6.07;;;3.50;99.90;;;;;;5067455;28;20044;-80
2022/01/25 02:10:37;;;;;;;16.10;5.85;;;5.40;99.90;;;;;;5064215;28;20041;-80
2022/01/25 02:13:41;;;;;;;15.70;6.13;;;4.00;99.90;;;;;;5083321;28;20044;-80
2022/01/25 02:36:50;;;;;;;11.77;4.78;;;4.30;99.90;;;;;;5090554;28;20044;-79
2022/01/25 02:43:23;;;;;;;12.30;5.93;;;4.30;99.90;;;;;;5082397;28;20173;-79
2022/01/25 02:54:08;;;;;;;14.05;5.32;;;3.70;99.90;;;;;;4939385;28;20043;-79
2022/01/25 02:57:36;;;;;;;16.17;6.20;;;5.50;99.90;;;;;;5010126;28;20629;-80
2022/01/25 03:11:25;;;;;;;;;;;;;;;;;;;;;
2022/01/25 03:18:12;;;;;;;15.77;5.53;;;3.80;99.90;;;;;;5053072;28;20046;-79
2022/01/25 03:24:42;;;;;;;18.20;5.47;;;3.90;99.90;;;;;;4985228;28;20047;-79
2022/01/25 03:27:41;;;;;;;13.95;5.72;;;3.60;99.90;;;;;;5026413;28;20450;-80
2022/01/25 03:30:54;;;;;;;20.30;6.10;;;2.00;99.90;;;;;;5044003;28;20068;-80
2022/01/25 03:34:17;;;;;;;11.48;5.03;;;3.70;99.90;;;;;;5047902;28;20094;-80
2022/01/25 03:37:24;;;;;;;13.38;6.10;;;3.90;99.90;;;;;;5049764;28;20056;-79
2022/01/25 03:45:02;;;;;;;;;;;;;;;;;;;;;
2022/01/25 03:47:58;;;;;;;15.02;4.60;;;3.60;99.90;;;;;;4993612;28;40737;-79
2022/01/25 03:50:40;;;;;;;12.02;4.82;;;4.40;99.90;;;;;;5033963;28;20375;-80
2022/01/25 03:53:29;;;;;;;10.75;5.03;;;4.10;99.90;;;;;;5041601;28;20125;-80
2022/01/25 03:56:00;;;;;;;13.07;4.80;;;3.80;99.90;;;;;;5094498;27;20044;-80
2022/01/25 03:58:42;;;;;;;11.43;4.22;;;3.70;99.90;;;;;;5091981;27;20585;-80
2022/01/25 04:01:34;;;;;;;16.25;6.10;;;4.10;99.90;;;;;;5094011;27;20049;-80
2022/01/25 04:08:56;;;;;;;10.55;5.05;;;3.60;99.90;;;;;;5064790;27;20166;-79
2022/01/25 04:12:07;;;;;;;;;;;;;;;;;;;;;
2022/01/25 04:15:27;;;;;;;19.85;5.10;;;4.20;99.90;;;;;;5120200;27;43176;-79
2022/01/25 04:18:48;;;;;;;8.23;3.55;;;3.60;99.90;;;;;;5104370;27;20054;-79
2022/01/25 04:28:22;;;;;;;10.95;3.78;;;3.30;99.90;;;;;;5119659;27;20036;-79
2022/01/25 04:49:01;;;;;;;12.57;4.43;;;5.10;99.90;;;;;;4914151;28;20051;-78
2022/01/25 04:52:34;;;;;;;16.30;5.88;;;5.00;99.90;;;;;;4912068;28;20046;-79
2022/01/25 05:09:16;;;;;;;;;;;;;;;;;;;;;
2022/01/25 05:22:17;;;;;;;;;;;;;;;;;;;;;
2022/01/25 05:25:20;;;;;;;10.05;4.28;;;4.80;99.90;;;;;;5012231;28;41891;-80
2022/01/25 05:32:04;;;;;;;11.52;5.40;;;4.80;99.90;;;;;;5079495;27;20040;-81
2022/01/25 05:52:39;;;;;;;9.48;3.38;;;2.40;99.90;;;;;;5048080;28;20897;-79
2022/01/25 05:56:20;;;;;;;9.27;3.88;;;2.70;99.90;;;;;;5026792;28;20155;-80
2022/01/25 05:59:39;;;;;;;;;;;;;;;;;;;;;
2022/01/25 06:03:09;;;;;;;17.77;4.95;;;3.40;99.90;;;;;;4935280;28;43581;-81
2022/01/25 06:09:20;;;;;;;13.38;4.40;;;1.70;99.90;;;;;;4936641;28;20685;-79
2022/01/25 06:15:19;;;;;;;;;;;3.50;99.90;;;;;;4938962;28;20118;-82
2022/01/25 06:22:22;;;;;;;;;;;;;;;;;;;;;
2022/01/25 06:25:34;;;;;;;10.25;3.35;;;3.80;99.90;;;;;;4986811;28;39066;-80
2022/01/25 06:28:31;;;;;;;9.05;3.15;;;3.00;99.90;;;;;;4945480;28;20179;-81
2022/01/25 06:31:17;;;;;;;;;;;;;;;;;;;;;
2022/01/25 06:33:50;;;;;;;11.52;3.92;;;3.40;99.90;;;;;;5062441;28;39729;-81
2022/01/25 06:36:19;;;;;;;;;;;3.30;99.90;;;;;;5059017;28;20545;-80
2022/01/25 06:39:06;;;;;;;11.27;3.17;;;3.80;99.90;;;;;;5062203;28;19928;-80
2022/01/25 06:41:44;;;;;;;10.02;3.78;;;3.40;99.90;;;;;;5046484;28;20055;-79
2022/01/25 06:44:32;;;;;;;13.27;4.30;;;3.60;99.90;;;;;;5101106;27;20621;-80
2022/01/25 06:47:11;;;;;;;11.02;4.25;;;2.00;99.90;;;;;;5086494;28;20175;-80
2022/01/25 06:50:30;;;;;;;11.30;4.28;;;4.20;99.90;;;;;;5088161;28;20131;-79
2022/01/25 06:54:05;;;;;;;9.20;3.75;;;4.50;99.90;;;;;;5061589;28;20051;-82
2022/01/25 06:57:17;;;;;;;11.85;3.50;;;3.50;99.90;;;;;;5036926;28;20575;-80
2022/01/25 07:07:34;;;;;;;;;;;;;;;;;;;;;
2022/01/25 07:18:40;;;;;;;11.98;4.30;;;3.80;99.90;;;;;;4971731;28;20051;-80
2022/01/25 07:25:18;;;;;;;10.60;7.10;;;2.40;99.90;;;;;;5008599;28;20072;-81
2022/01/25 07:28:46;;;;;;;11.02;3.92;;;2.00;99.90;;;;;;4946693;28;21023;-82
2022/01/25 07:32:06;;;;;;;;;;;;;;;;;;;;;
2022/01/25 07:39:29;;;;;;;;;;;;;;;;;;;;;
2022/01/25 07:47:02;;;;;;;;;;;;;;;;;;;;;
2022/01/25 07:58:07;;;;;;;11.23;4.83;;;4.90;99.90;;;;;;4903867;29;20057;-82
2022/01/25 08:04:46;;;;;;;8.90;4.30;;;3.40;99.90;;;;;;4954080;28;20079;-82
2022/01/25 08:18:53;;;;;;;7.60;3.30;;;4.90;99.90;;;;;;4971485;28;20124;-81
2022/01/25 08:40:02;;;;;;;6.90;3.22;;;4.00;99.90;;;;;;4999661;28;20059;-82
2022/01/25 08:46:05;;;;;;;10.60;4.68;;;4.20;99.90;;;;;;4939084;28;20044;-82
2022/01/25 08:48:37;;;;;;;9.77;3.72;;;3.90;99.90;;;;;;5036751;28;20088;-82
2022/01/25 08:51:14;;;;;;;8.07;4.03;;;3.50;99.90;;;;;;5046187;28;20048;-82
2022/01/25 08:54:19;;;;;;;7.35;3.67;;;3.40;99.90;;;;;;5033636;28;20049;-82
2022/01/25 08:57:05;;;;;;;4.10;2.25;;;3.80;99.90;;;;;;5047047;28;20136;-81
2022/01/25 08:59:43;;;;;;;11.05;3.95;;;2.50;99.90;;;;;;5035748;28;20511;-82
2022/01/25 09:02:23;;;;;;;6.95;3.88;;;3.50;99.90;;;;;;5038577;28;20531;-82
2022/01/25 09:04:57;;;;;;;10.77;4.55;;;4.20;99.90;;;;;;5052676;28;20059;-82
2022/01/25 09:07:37;;;;;;;10.00;5.40;;;4.60;99.90;;;;;;5047079;28;20095;-83
2022/01/25 09:10:04;;;;;;;10.63;4.55;;;3.80;99.90;;;;;;5030592;28;20041;-81
2022/01/25 09:12:36;;;;;;;11.27;4.13;;;4.40;99.90;;;;;;5042254;28;20574;-82
2022/01/25 09:15:04;;;;;;;10.00;3.28;;;3.70;99.90;;;;;;5072978;28;20026;-81
2022/01/25 09:17:41;;;;;;;9.57;5.05;;;3.80;99.90;;;;;;5063219;28;20041;-82
2022/01/25 09:20:10;;;;;;;12.50;3.75;;;4.50;99.90;;;;;;5062070;28;20064;-82
2022/01/25 09:22:38;;;;;;;10.90;5.05;;;3.50;99.90;;;;;;5077527;28;20052;-82
2022/01/25 09:25:12;;;;;;;10.55;5.07;;;3.60;99.90;;;;;;5070639;28;21061;-82
2022/01/25 09:28:13;;;;;;;8.00;4.22;;;5.20;99.90;;;;;;5092229;28;20044;-83
2022/01/25 09:30:56;;;;;;;12.75;4.78;;;3.10;99.90;;;;;;5078202;28;20045;-82
2022/01/25 09:33:40;;;;;;;10.63;4.75;;;4.10;99.90;;;;;;5078118;28;20059;-82
2022/01/25 09:36:26;;;;;;;7.35;4.05;;;2.50;99.90;;;;;;5070680;28;20039;-83
2022/01/25 09:39:02;;;;;;;8.73;4.20;;;4.40;99.90;;;;;;5075945;28;20052;-81
2022/01/25 09:41:46;;;;;;;10.13;4.10;;;3.50;99.90;;;;;;5071375;28;20522;-82
2022/01/25 09:44:37;;;;;;;8.40;3.45;;;4.40;99.90;;;;;;5075364;28;20047;-82
2022/01/25 09:47:17;;;;;;;8.82;3.17;;;3.90;99.90;;;;;;5077654;28;20056;-82
2022/01/25 09:49:55;;;;;;;7.35;3.50;;;3.70;99.90;;;;;;5084362;28;20946;-82
2022/01/25 09:52:27;;;;;;;8.52;3.20;;;3.70;99.90;;;;;;5070842;28;21032;-82
2022/01/25 09:55:26;;;;;;;13.63;4.15;;;3.60;99.90;;;;;;5077088;28;20051;-83
2022/01/25 09:58:02;;;;;;;12.68;3.88;;;3.60;99.90;;;;;;5067070;28;20068;-82
2022/01/25 10:00:39;;;;;;;9.32;3.80;;;4.10;99.90;;;;;;5067496;28;20547;-83
2022/01/25 10:05:58;;;;;;;6.55;3.05;;;3.80;99.90;;;;;;5088333;28;20051;-82
2022/01/25 10:08:47;;;;;;;7.30;3.42;;;4.10;99.90;;;;;;5093657;28;20045;-83
2022/01/25 10:11:28;;;;;;;8.57;4.07;;;4.20;99.90;;;;;;5069944;28;20048;-82
2022/01/25 10:14:09;;;;;;;7.30;3.40;;;3.40;99.90;;;;;;5074204;28;20521;-82
2022/01/25 10:16:43;;;;;;;7.90;3.83;;;3.90;99.90;;;;;;5067794;28;20056;-82
2022/01/25 10:22:16;;;;;;;9.48;3.22;;;4.50;99.90;;;;;;5090148;28;20044;-82
2022/01/25 10:24:48;;;;;;;7.65;3.35;;;4.00;99.90;;;;;;5089095;28;20119;-81
2022/01/25 10:27:57;;;;;;;8.57;2.97;;;4.00;99.90;;;;;;5091086;28;20039;-83
2022/01/25 10:30:15;;;;;;;8.50;2.88;;;4.10;99.90;;;;;;5088236;28;20641;-82
2022/01/25 10:32:58;;;;;;;7.50;3.50;;;4.80;99.90;;;;;;5073331;28;20050;-82
2022/01/25 10:35:34;;;;;;;8.13;3.22;;;4.40;99.90;;;;;;5072403;28;20532;-82
2022/01/25 10:38:25;;;;;;;6.65;3.10;;;4.20;99.90;;;;;;5070313;28;20602;-83
2022/01/25 10:41:04;;;;;;;5.88;2.63;;;5.10;99.90;;;;;;5071104;28;20048;-83
2022/01/25 10:43:47;;;;;;;;;;;;;;;;;;;;;
2022/01/25 10:46:32;;;;;;;7.88;2.88;;;4.40;99.90;;;;;;5085630;28;38965;-83
2022/01/25 10:49:11;;;;;;;8.45;3.90;;;5.10;99.90;;;;;;5069798;28;20051;-84
2022/01/25 10:51:44;;;;;;;9.80;3.75;;;3.60;99.90;;;;;;5088430;28;20151;-84
2022/01/25 10:54:30;;;;;;;5.65;2.95;;;4.70;99.90;;;;;;5068169;28;20040;-84
2022/01/25 10:57:19;;;;;;;6.43;2.90;;;3.00;99.90;;;;;;5060199;28;20048;-83
2022/01/25 11:00:09;;;;;;;5.80;2.88;;;4.90;99.90;;;;;;5089304;28;20604;-84
2022/01/25 11:03:17;;;;;;;7.78;3.92;;;3.70;99.90;;;;;;5087464;28;20551;-83
2022/01/25 11:05:54;;;;;;;5.38;3.05;;;3.90;99.90;;;;;;5063237;28;20572;-83
2022/01/25 11:08:40;;;;;;;4.63;2.65;;;4.30;99.90;;;;;;5083458;28;20987;-83
2022/01/25 11:11:29;;;;;;;6.05;2.70;;;5.80;99.90;;;;;;5089664;28;20063;-83
2022/01/25 11:17:05;;;;;;;4.38;2.35;;;4.30;99.90;;;;;;5086581;28;20048;-83
2022/01/25 11:19:51;;;;;;;4.97;2.88;;;4.90;99.90;;;;;;5088824;28;20036;-83
2022/01/25 11:22:30;;;;;;;4.53;2.55;;;4.20;99.90;;;;;;5089485;28;20056;-83
2022/01/25 11:25:24;;;;;;;6.47;3.08;;;4.20;99.90;;;;;;5064699;27;20045;-83
2022/01/25 11:27:59;;;;;;;5.32;2.22;;;3.70;99.90;;;;;;5067447;28;20044;-82
2022/01/25 11:30:33;;;;;;;6.22;3.63;;;5.30;99.90;;;;;;5060671;28;20102;-83
2022/01/25 11:33:21;;;;;;;5.78;3.45;;;4.80;99.90;;;;;;5066816;28;20180;-82
2022/01/25 11:36:22;;;;;;;;;;;;;;;;;;;;;
2022/01/25 11:38:59;;;;;;;5.18;2.28;;;4.50;99.90;;;;;;5082901;28;42092;-83
2022/01/25 11:41:36;;;;;;;6.43;2.75;;;4.40;99.90;;;;;;5063971;28;20075;-83
2022/01/25 11:44:09;;;;;;;6.60;2.85;;;4.50;99.90;;;;;;5072079;28;20126;-82
2022/01/25 11:46:39;;;;;;;;;;;4.50;99.90;;;;;;5062177;28;20047;-82
2022/01/25 11:49:19;;;;;;;5.63;2.65;;;5.00;99.90;;;;;;5089188;28;19920;-82
2022/01/25 11:52:13;;;;;;;7.68;2.88;;;5.10;99.90;;;;;;5087431;28;20531;-82
2022/01/25 11:54:46;;;;;;;6.40;2.72;;;6.60;99.90;;;;;;5063278;28;20048;-81
2022/01/25 11:57:20;;;;;;;7.65;3.20;;;4.90;99.90;;;;;;5069140;28;20060;-82
2022/01/25 11:59:55;;;;;;;10.43;3.38;;;4.60;99.90;;;;;;5072379;28;20680;-81
2022/01/25 12:02:49;;;;;;;5.57;2.15;;;4.00;99.90;;;;;;5066280;28;20107;-82
2022/01/25 12:05:34;;;;;;;7.18;2.80;;;3.50;99.90;;;;;;5096603;28;20147;-84
2022/01/25 12:08:09;;;;;;;7.50;3.55;;;4.30;99.90;;;;;;5072190;28;20043;-80
2022/01/25 12:10:54;;;;;;;9.13;3.28;;;4.60;99.90;;;;;;5089345;28;20040;-80
2022/01/25 12:14:09;;;;;;;8.43;2.67;;;4.80;99.90;;;;;;5065567;28;21610;-81
2022/01/25 12:16:43;;;;;;;5.63;2.83;;;5.60;99.90;;;;;;5067444;28;20045;-81
2022/01/25 12:19:17;;;;;;;6.10;2.90;;;4.40;99.90;;;;;;5091285;28;20040;-81
2022/01/25 12:21:46;;;;;;;7.82;3.28;;;4.10;99.90;;;;;;5088570;28;20097;-80
2022/01/25 12:24:50;;;;;;;8.13;3.13;;;4.10;99.90;;;;;;5064523;28;20844;-80
2022/01/25 12:27:33;;;;;;;5.88;3.08;;;4.40;99.90;;;;;;5067421;28;20123;-81
2022/01/25 12:30:19;;;;;;;5.63;2.67;;;4.50;99.90;;;;;;5068328;28;20055;-80
2022/01/25 12:33:02;;;;;;;5.47;2.90;;;4.50;99.90;;;;;;5072208;28;20059;-80
2022/01/25 12:35:54;;;;;;;5.50;2.72;;;4.70;99.90;;;;;;5083267;28;20037;-81
2022/01/25 12:38:38;;;;;;;5.72;2.65;;;4.90;99.90;;;;;;5087031;28;20084;-81
2022/01/25 12:41:23;;;;;;;5.35;2.30;;;4.40;99.90;;;;;;5089768;28;20047;-81
2022/01/25 12:43:54;;;;;;;10.05;3.60;;;4.40;99.90;;;;;;5072086;28;20040;-81
2022/01/25 12:46:29;;;;;;;7.70;3.43;;;4.20;99.90;;;;;;5070997;28;20040;-81
2022/01/25 12:49:25;;;;;;;6.82;2.95;;;4.40;99.90;;;;;;5094633;28;20071;-81
2022/01/25 12:52:07;;;;;;;8.88;3.97;;;5.10;99.90;;;;;;5080480;28;20040;-81
2022/01/25 12:54:36;;;;;;;7.80;3.35;;;5.70;99.90;;;;;;5057520;28;20106;-81
2022/01/25 12:57:15;;;;;;;6.72;3.25;;;4.30;99.90;;;;;;5070465;28;20068;-81
2022/01/25 12:59:49;;;;;;;9.32;3.15;;;5.30;99.90;;;;;;5073134;28;20040;-79
2022/01/25 13:02:19;;;;;;;7.80;4.38;;;4.50;99.90;;;;;;5090615;28;20125;-80
2022/01/25 13:04:50;;;;;;;9.32;4.45;;;4.60;99.90;;;;;;5097457;28;20145;-80
2022/01/25 13:07:21;;;;;;;8.00;2.90;;;5.20;99.90;;;;;;5071657;28;20032;-81
2022/01/25 13:09:54;;;;;;;8.47;2.93;;;4.60;99.90;;;;;;5092576;28;20052;-80
2022/01/25 13:12:33;;;;;;;8.30;3.55;;;4.80;99.90;;;;;;5090284;28;20048;-80
2022/01/25 13:15:26;;;;;;;9.05;3.75;;;4.00;99.90;;;;;;5088748;28;20687;-79
2022/01/25 13:17:53;;;;;;;6.53;3.58;;;4.60;99.90;;;;;;5083032;28;20135;-79
2022/01/25 13:20:25;;;;;;;9.27;2.80;;;4.40;99.90;;;;;;5069162;28;20184;-80
2022/01/25 13:23:03;;;;;;;7.45;2.78;;;4.60;99.90;;;;;;5090841;28;20111;-80
2022/01/25 13:26:42;;;;;;;5.85;2.70;;;5.00;99.90;;;;;;5091820;28;20044;-79
2022/01/25 13:32:55;;;;;;;9.07;3.20;;;5.30;99.90;;;;;;5038525;28;20041;-80
2022/01/25 13:35:48;;;;;;;4.80;2.95;;;4.20;99.90;;;;;;5020283;28;20053;-79
2022/01/25 13:39:15;;;;;;;4.30;2.60;;;4.60;99.90;;;;;;5066975;28;20059;-80
2022/01/25 13:42:03;;;;;;;7.70;2.95;;;5.20;99.90;;;;;;5066774;28;20064;-79
2022/01/25 13:48:01;;;;;;;10.95;3.13;;;6.70;99.90;;;;;;5080047;28;20092;-79
2022/01/25 13:51:13;;;;;;;8.10;4.65;;;5.10;99.90;;;;;;5075068;28;20052;-80
2022/01/25 13:54:33;;;;;;;11.88;3.65;;;4.90;99.90;;;;;;5077147;28;20044;-80
2022/01/25 13:57:29;;;;;;;8.40;3.33;;;5.10;99.90;;;;;;4977759;28;21982;-80
2022/01/25 14:03:47;;;;;;;9.38;2.88;;;4.60;99.90;;;;;;5074411;28;20534;-80
2022/01/25 14:06:39;;;;;;;;;;;;;;;;;;;;;
2022/01/25 14:09:29;;;;;;;6.18;3.28;;;3.60;99.90;;;;;;5015544;28;42847;-79
2022/01/25 14:26:29;;;;;;;5.55;2.92;;;5.00;99.90;;;;;;5029837;28;20056;-81
2022/01/25 14:29:19;;;;;;;6.88;3.58;;;4.50;99.90;;;;;;5018762;28;20077;-81
2022/01/25 14:31:45;;;;;;;7.60;2.67;;;5.00;99.90;;;;;;5031764;28;20077;-81
2022/01/25 14:34:34;;;;;;;;;;;;;;;;;;;;;
2022/01/25 14:37:32;;;;;;;6.30;3.00;;;4.00;99.90;;;;;;5044241;28;43556;-81
2022/01/25 14:40:11;;;;;;;7.88;3.42;;;4.20;99.90;;;;;;5067267;28;20172;-81
2022/01/25 14:43:05;;;;;;;8.35;3.50;;;5.20;99.90;;;;;;5072963;28;20051;-81
2022/01/25 14:45:49;;;;;;;5.10;3.67;;;5.20;99.90;;;;;;5066711;28;20044;-80
2022/01/25 14:48:29;;;;;;;9.23;3.53;;;2.70;99.90;;;;;;5075636;28;20036;-82
2022/01/25 14:51:26;;;;;;;4.80;2.92;;;4.00;99.90;;;;;;5075987;28;20052;-80
2022/01/25 14:54:10;;;;;;;6.68;3.88;;;4.40;99.90;;;;;;5070723;28;20057;-81
2022/01/25 14:57:01;;;;;;;7.05;3.38;;;2.70;99.90;;;;;;5071071;28;20095;-81
2022/01/25 14:59:46;;;;;;;11.43;4.28;;;4.50;99.90;;;;;;5074122;28;20049;-81
2022/01/25 15:02:27;;;;;;;7.90;3.10;;;4.30;99.90;;;;;;5063712;28;20070;-81
2022/01/25 15:05:01;;;;;;;6.47;3.83;;;4.30;99.90;;;;;;5069592;28;20049;-81
2022/01/25 15:07:36;;;;;;;6.82;3.70;;;4.70;99.90;;;;;;5061114;28;20045;-81
2022/01/25 15:10:19;;;;;;;7.63;3.13;;;4.60;99.90;;;;;;5072428;28;21049;-81
2022/01/25 15:12:53;;;;;;;5.03;3.28;;;4.80;99.90;;;;;;5067149;28;20041;-82
2022/01/25 15:16:23;;;;;;;8.63;3.85;;;5.00;99.90;;;;;;5062034;28;20537;-82
2022/01/25 15:18:35;;;;;;;9.82;3.75;;;5.50;99.90;;;;;;5057560;28;20082;-82
2022/01/25 15:21:10;;;;;;;9.00;4.22;;;6.40;99.90;;;;;;5070086;28;20148;-82
2022/01/25 15:23:39;;;;;;;11.90;4.22;;;4.80;99.90;;;;;;5081337;28;20052;-81
2022/01/25 15:26:52;;;;;;;;;;;;;;;;;;;;;
2022/01/25 15:29:39;;;;;;;5.82;3.55;;;4.20;99.90;;;;;;5088083;28;42260;-81
2022/01/25 15:32:32;;;;;;;6.47;3.10;;;3.90;99.90;;;;;;5071146;28;20040;-80
2022/01/25 15:35:24;;;;;;;7.47;3.83;;;5.00;99.90;;;;;;5089385;28;20163;-81
2022/01/25 15:38:22;;;;;;;5.57;3.50;;;5.00;99.90;;;;;;5074861;28;20318;-81
2022/01/25 15:41:24;;;;;;;14.93;4.10;;;4.80;99.90;;;;;;5085501;28;20131;-80
2022/01/25 15:44:18;;;;;;;5.32;3.30;;;4.00;99.90;;;;;;5066567;28;20048;-81
2022/01/25 15:46:59;;;;;;;10.57;3.97;;;3.80;99.90;;;;;;5065742;28;20064;-81
2022/01/25 15:50:09;;;;;;;8.60;3.78;;;4.20;99.90;;;;;;5067256;28;20548;-82
2022/01/25 15:56:03;;;;;;;14.40;6.18;;;3.40;99.90;;;;;;5082898;28;20150;-81
2022/01/25 15:58:51;;;;;;;12.32;6.43;;;4.00;99.90;;;;;;5068764;28;20049;-81
2022/01/25 16:01:46;;;;;;;8.60;4.40;;;4.30;99.90;;;;;;5065988;28;20056;-81
2022/01/25 16:04:18;;;;;;;9.95;4.32;;;4.30;99.90;;;;;;5066826;28;20111;-81
2022/01/25 16:06:44;;;;;;;14.40;5.45;;;4.40;99.90;;;;;;5046614;28;20164;-81
2022/01/25 16:09:25;;;;;;;13.02;5.55;;;4.50;99.90;;;;;;5034206;28;21086;-81
2022/01/25 16:15:12;;;;;;;13.05;5.13;;;3.50;99.90;;;;;;5050821;28;20037;-81
2022/01/25 16:18:08;;;;;;;10.98;4.80;;;4.50;99.90;;;;;;5030606;28;20728;-81
2022/01/25 16:23:44;;;;;;;9.52;4.03;;;3.20;99.90;;;;;;5023721;28;20089;-81
2022/01/25 16:26:50;;;;;;;8.37;4.33;;;5.20;99.90;;;;;;5003387;28;20053;-81
2022/01/25 16:39:37;;;;;;;9.70;3.63;;;3.70;99.90;;;;;;5057154;28;20136;-81
2022/01/25 16:46:45;;;;;;;6.03;2.75;;;4.30;99.90;;;;;;4983995;28;20042;-81
2022/01/25 16:49:43;;;;;;;9.98;3.47;;;3.70;99.90;;;;;;4973644;28;20102;-80
2022/01/25 16:53:21;;;;;;;9.63;3.65;;;2.90;99.90;;;;;;4994451;28;20061;-81
2022/01/25 16:55:48;;;;;;;13.88;5.13;;;3.70;99.90;;;;;;5035675;28;20052;-81
2022/01/25 16:58:25;;;;;;;10.98;4.45;;;3.70;99.90;;;;;;5071862;28;20952;-81
2022/01/25 17:01:22;;;;;;;;;;;;;;;;;;;;;
2022/01/25 17:11:17;;;;;;;9.85;4.10;;;4.20;99.90;;;;;;5017399;28;20489;-83
2022/01/25 17:14:45;;;;;;;16.13;6.68;;;4.40;99.90;;;;;;4998301;28;20042;-82
2022/01/25 17:17:23;;;;;;;20.85;9.52;;;3.80;99.90;;;;;;4955331;28;20051;-81
2022/01/25 17:19:52;;;;;;;20.33;8.90;;;2.90;99.90;;;;;;5014383;28;20710;-81
2022/01/25 17:22:23;;;;;;;14.30;6.30;;;3.50;99.90;;;;;;5020761;28;20052;-88
2022/01/25 17:24:49;;;;;;;10.93;4.95;;;5.10;99.90;;;;;;5018641;28;20132;-80
2022/01/25 17:27:18;;;;;;;9.75;5.00;;;3.50;99.90;;;;;;5020537;28;20420;-82
2022/01/25 17:29:47;;;;;;;7.63;4.53;;;4.00;99.90;;;;;;5018594;28;20092;-82
2022/01/25 17:32:13;;;;;;;8.93;5.35;;;3.90;99.90;;;;;;5020845;28;20053;-81
2022/01/25 17:34:39;;;;;;;12.35;5.85;;;3.90;99.90;;;;;;5015999;28;20042;-82
2022/01/25 17:37:08;;;;;;;11.20;4.80;;;4.50;99.90;;;;;;5033376;28;20053;-81
2022/01/25 17:39:36;;;;;;;14.18;5.15;;;3.90;99.90;;;;;;5017871;28;20068;-81
2022/01/25 17:42:05;;;;;;;10.88;5.25;;;3.70;99.90;;;;;;5036182;28;20050;-81
2022/01/25 17:44:42;;;;;;;9.75;4.43;;;3.90;99.90;;;;;;5036418;28;20140;-81
2022/01/25 17:47:10;;;;;;;11.38;4.35;;;3.90;99.90;;;;;;5038107;28;20205;-82
2022/01/25 17:49:39;;;;;;;10.98;5.82;;;3.90;99.90;;;;;;5058266;28;20694;-81
2022/01/25 17:52:05;;;;;;;9.27;3.70;;;4.30;99.90;;;;;;5060934;28;20068;-82
2022/01/25 17:54:37;;;;;;;10.48;3.90;;;4.40;99.90;;;;;;5057440;28;20172;-81
2022/01/25 17:57:06;;;;;;;7.07;3.73;;;3.40;99.90;;;;;;5055345;28;20183;-83
2022/01/25 17:59:34;;;;;;;13.60;4.47;;;3.90;99.90;;;;;;5056756;28;20070;-82
2022/01/25 18:02:02;;;;;;;10.05;3.83;;;3.80;99.90;;;;;;5053290;28;20120;-81
2022/01/25 18:04:41;;;;;;;16.67;6.20;;;3.70;99.90;;;;;;5060259;28;20041;-83
2022/01/25 18:07:12;;;;;;;11.80;5.47;;;3.70;99.90;;;;;;5059492;28;20033;-82
2022/01/25 18:09:40;;;;;;;12.05;4.70;;;2.60;99.90;;;;;;5059414;28;20061;-82
2022/01/25 18:12:07;;;;;;;12.32;5.45;;;4.00;99.90;;;;;;5056550;28;20199;-83
2022/01/25 18:14:33;;;;;;;15.57;5.47;;;3.90;99.90;;;;;;5057810;28;20068;-83
2022/01/25 18:17:02;;;;;;;11.20;4.53;;;4.20;99.90;;;;;;5054469;28;20140;-83
2022/01/25 18:19:42;;;;;;;9.68;3.78;;;4.70;99.90;;;;;;5053932;28;20041;-82
2022/01/25 18:22:14;;;;;;;12.27;5.75;;;4.10;99.90;;;;;;5062356;28;20040;-82
2022/01/25 18:24:57;;;;;;;18.38;5.82;;;3.20;99.90;;;;;;5081390;28;20040;-82
2022/01/25 18:27:24;;;;;;;11.50;5.15;;;4.70;99.90;;;;;;5083339;28;21030;-83
2022/01/25 18:29:50;;;;;;;15.15;5.82;;;3.20;99.90;;;;;;5088527;28;20560;-82
2022/01/25 18:32:19;;;;;;;9.80;4.50;;;4.00;99.90;;;;;;5064906;28;20036;-82
2022/01/25 18:34:48;;;;;;;13.43;5.15;;;4.30;99.90;;;;;;5081084;28;20857;-77
2022/01/25 18:37:14;;;;;;;12.73;5.53;;;4.70;99.90;;;;;;5070231;28;20047;-77
2022/01/25 18:39:42;;;;;;;14.15;7.13;;;3.70;99.90;;;;;;5071508;28;20043;-78
2022/01/25 18:42:11;;;;;;;16.25;6.30;;;3.60;99.90;;;;;;5071215;28;20130;-77
2022/01/25 18:44:39;;;;;;;13.25;5.28;;;3.90;99.90;;;;;;5078479;28;20076;-77
2022/01/25 18:47:12;;;;;;;12.88;4.60;;;3.70;99.90;;;;;;5086002;28;20055;-77
2022/01/25 18:49:38;;;;;;;10.05;4.82;;;3.60;99.90;;;;;;5073035;28;20160;-80
2022/01/25 18:52:08;;;;;;;10.73;5.07;;;4.20;99.90;;;;;;5067801;28;20345;-75
2022/01/25 18:54:34;;;;;;;12.68;4.72;;;3.40;99.90;;;;;;5076798;28;20115;-76
2022/01/25 18:57:05;;;;;;;15.93;7.38;;;3.60;99.90;;;;;;5066456;28;20044;-77
2022/01/25 18:59:31;;;;;;;21.95;7.68;;;3.60;99.90;;;;;;5069938;28;20709;-76
2022/01/25 19:02:10;;;;;;;14.20;5.63;;;4.50;99.90;;;;;;5089994;28;20051;-82
2022/01/25 19:04:41;;;;;;;12.82;5.43;;;3.60;99.90;;;;;;5067875;28;20047;-75
2022/01/25 19:07:11;;;;;;;18.70;6.43;;;3.60;99.90;;;;;;5072785;28;20522;-77
2022/01/25 19:09:42;;;;;;;15.77;5.53;;;3.60;99.90;;;;;;5066840;28;20508;-76
2022/01/25 19:12:14;;;;;;;18.63;5.73;;;4.10;99.90;;;;;;5065412;28;20079;-77
2022/01/25 19:14:42;;;;;;;11.25;5.95;;;3.30;99.90;;;;;;5074457;28;20116;-77
2022/01/25 19:17:10;;;;;;;11.57;4.22;;;3.90;99.90;;;;;;5087898;28;20048;-76
2022/01/25 19:19:36;;;;;;;8.63;4.68;;;4.70;99.90;;;;;;5084246;28;20041;-75
2022/01/25 19:22:08;;;;;;;12.77;4.63;;;3.50;99.90;;;;;;5069579;28;20534;-77
2022/01/25 19:24:37;;;;;;;10.00;4.15;;;4.40;99.90;;;;;;5084220;28;20117;-77
2022/01/25 19:27:06;;;;;;;13.98;5.95;;;4.80;99.90;;;;;;5063935;27;20056;-76
2022/01/25 19:29:31;;;;;;;10.30;4.82;;;3.40;99.90;;;;;;5064904;28;20186;-77
2022/01/25 19:31:57;;;;;;;11.98;4.63;;;4.00;99.90;;;;;;5070904;28;20197;-77
2022/01/25 19:34:23;;;;;;;12.02;5.63;;;3.60;99.90;;;;;;5064476;28;20040;-76
2022/01/25 19:36:49;;;;;;;12.07;5.72;;;3.40;99.90;;;;;;5063811;28;20044;-76
2022/01/25 19:39:15;;;;;;;13.07;5.70;;;3.70;99.90;;;;;;5085162;28;20040;-77
2022/01/25 19:41:46;;;;;;;10.40;4.60;;;3.10;99.90;;;;;;5086103;28;20035;-77
2022/01/25 19:44:12;;;;;;;10.80;5.32;;;3.80;99.90;;;;;;5066973;28;20090;-77
2022/01/25 19:46:38;;;;;;;20.08;6.35;;;3.10;99.90;;;;;;5086475;28;20658;-77
2022/01/25 19:49:07;;;;;;;12.90;5.90;;;3.40;99.90;;;;;;5082165;28;20048;-77
2022/01/25 19:51:35;;;;;;;14.02;5.82;;;3.50;99.90;;;;;;5064926;28;20044;-78
2022/01/25 19:54:01;;;;;;;9.98;5.68;;;3.50;99.90;;;;;;5071053;28;20047;-78
2022/01/25 19:56:35;;;;;;;13.40;5.47;;;3.50;99.90;;;;;;5060232;28;20052;-77
2022/01/25 19:59:05;;;;;;;15.50;6.70;;;3.50;99.90;;;;;;5083325;28;20156;-78
2022/01/25 20:01:31;;;;;;;13.00;5.65;;;4.10;99.90;;;;;;5060721;28;20052;-77
2022/01/25 20:03:59;;;;;;;14.52;6.28;;;3.20;99.90;;;;;;5086798;28;20041;-78
2022/01/25 20:06:25;;;;;;;17.45;6.10;;;4.20;99.90;;;;;;5064239;28;20087;-78
2022/01/25 20:08:51;;;;;;;14.55;6.85;;;4.00;99.90;;;;;;5089162;28;20102;-78
2022/01/25 20:11:21;;;;;;;13.50;6.20;;;3.50;99.90;;;;;;5080081;28;20032;-77
2022/01/25 20:13:47;;;;;;;14.27;4.80;;;3.40;99.90;;;;;;5082713;28;20131;-79
2022/01/25 20:16:17;;;;;;;14.10;5.05;;;3.40;99.90;;;;;;5092370;28;20051;-78
2022/01/25 20:18:43;;;;;;;13.95;5.30;;;3.40;99.90;;;;;;5066795;28;20055;-78
2022/01/25 20:23:41;;;;;;;14.80;5.45;;;3.30;99.90;;;;;;5083782;28;20049;-78
2022/01/25 20:26:26;;;;;;;17.10;5.40;;;4.10;99.90;;;;;;5069065;28;20454;-78
2022/01/25 20:29:00;;;;;;;13.32;5.32;;;3.10;99.90;;;;;;5071942;28;20548;-78
2022/01/25 20:31:28;;;;;;;14.50;6.32;;;3.30;99.90;;;;;;5077708;28;20044;-77